WSSL/XSP METAR and TAF weather

Enter ICAO airport designator
Station Type Date Time Source
WSSL METAR 2020/09/27 15:00 UTC NOAA

WSSL 271500Z 19005KT 9999 FEW018 BKN280 27/23 Q1011


Station Type Date Time Source
WSSL Decoded METAR 2020/09/27 15:00 UTC NOAA

Station name not available
Sep 27, 2020 - 11:00 AM EDT / 2020.09.27 1500 UTC
Wind: from the S (190 degrees) at 6 MPH (5 KT):0
Visibility: greater than 7 mile(s):0
Sky conditions: mostly cloudy
Temperature: 80 F (27 C)
Dew Point: 73 F (23 C)
Relative Humidity: 78%
Pressure (altimeter): 29.85 in. Hg (1011 hPa)
ob: WSSL 271500Z 19005KT 9999 FEW018 BKN280 27/23 Q1011
cycle: 15

Station Type Date Time Source
WSSL TAF 2020/09/27 12:06 UTC NOAA

TAF WSSL 271100Z 2712/2818 22008KT 9999 FEW015 SCT020

Example: see airport list